createdAt,value
2022-09-14T00:01:59.919Z,9.82
2022-09-14T00:04:08.694Z,10.02
2022-09-14T00:06:18.901Z,7.70
2022-09-14T00:08:24.224Z,8.63
2022-09-14T00:10:31.866Z,9.82
2022-09-14T00:14:42.148Z,6.00
2022-09-14T00:16:48.013Z,6.15
2022-09-14T00:18:59.107Z,6.07
2022-09-14T00:21:05.996Z,6.28
2022-09-14T00:23:10.936Z,6.30
2022-09-14T00:25:16.260Z,7.70
2022-09-14T00:27:23.831Z,7.38
2022-09-14T00:29:29.726Z,8.60
2022-09-14T00:31:36.357Z,6.18
2022-09-14T00:33:41.540Z,6.28
2022-09-14T00:35:47.330Z,6.30
2022-09-14T00:37:53.733Z,9.88
2022-09-14T00:39:59.522Z,6.53
2022-09-14T00:42:04.909Z,8.10
2022-09-14T00:44:55.340Z,4.95
2022-09-14T00:47:05.906Z,8.93
2022-09-14T00:49:15.882Z,5.57
2022-09-14T00:51:22.823Z,6.28
2022-09-14T00:55:54.757Z,6.80
2022-09-14T00:58:00.260Z,7.53
2022-09-14T01:00:10.220Z,5.50
2022-09-14T01:02:18.756Z,7.75
2022-09-14T01:04:24.589Z,7.45
2022-09-14T01:06:39.763Z,7.85
2022-09-14T01:08:59.482Z,10.85
2022-09-14T01:11:25.602Z,7.18
2022-09-14T01:13:39.916Z,5.93
2022-09-14T01:15:57.373Z,9.35
2022-09-14T01:20:27.503Z,5.85
2022-09-14T01:22:43.111Z,13.95
2022-09-14T01:24:54.623Z,6.82
2022-09-14T01:27:26.172Z,6.82
2022-09-14T01:29:36.469Z,6.80
2022-09-14T01:31:57.538Z,6.95
2022-09-14T01:34:11.789Z,9.15
2022-09-14T01:36:19.841Z,9.25
2022-09-14T01:38:32.149Z,7.25
2022-09-14T01:40:41.621Z,7.97
2022-09-14T01:42:54.303Z,11.07
2022-09-14T01:45:04.568Z,7.95
2022-09-14T01:47:16.960Z,9.70
2022-09-14T01:49:27.745Z,12.88
2022-09-14T01:51:45.705Z,9.10
2022-09-14T01:53:55.692Z,10.55
2022-09-14T01:56:07.709Z,7.95
2022-09-14T01:58:25.781Z,11.93
2022-09-14T02:00:31.073Z,8.23
2022-09-14T02:02:44.474Z,8.85
2022-09-14T02:04:58.194Z,9.52
2022-09-14T02:07:03.247Z,6.38
2022-09-14T02:09:12.849Z,8.70
2022-09-14T02:11:17.808Z,9.05
2022-09-14T02:13:25.997Z,8.85
2022-09-14T02:15:31.750Z,8.95
2022-09-14T02:17:37.564Z,7.43
2022-09-14T02:19:47.938Z,6.93
2022-09-14T02:21:53.039Z,7.47
2022-09-14T02:23:58.512Z,8.25
2022-09-14T02:26:04.185Z,8.73
2022-09-14T02:28:09.381Z,8.90
2022-09-14T02:30:20.735Z,8.07
2022-09-14T02:32:35.125Z,9.05
2022-09-14T02:34:53.217Z,8.70
2022-09-14T02:37:07.861Z,10.40
2022-09-14T02:39:26.773Z,8.98
2022-09-14T02:41:46.881Z,9.82
2022-09-14T02:43:59.464Z,8.60
2022-09-14T02:46:17.391Z,10.38
2022-09-14T02:48:40.530Z,15.88
2022-09-14T02:50:53.737Z,14.98
2022-09-14T02:53:07.876Z,14.73
2022-09-14T02:55:17.153Z,13.80
2022-09-14T02:57:22.728Z,16.00
2022-09-14T02:59:28.134Z,11.65
2022-09-14T03:01:36.317Z,13.02
2022-09-14T03:03:41.336Z,12.45
2022-09-14T03:05:47.135Z,19.25
2022-09-14T03:07:52.382Z,14.90
2022-09-14T03:09:57.272Z,14.32
2022-09-14T03:12:02.537Z,13.85
2022-09-14T03:14:07.461Z,15.07
2022-09-14T03:16:15.448Z,10.93
2022-09-14T03:18:23.924Z,13.40
2022-09-14T03:20:34.469Z,13.02
2022-09-14T03:22:40.290Z,19.05
2022-09-14T03:24:45.191Z,10.68
2022-09-14T03:26:52.228Z,18.25
2022-09-14T03:28:59.818Z,12.32
2022-09-14T03:31:05.508Z,13.27
2022-09-14T03:33:10.969Z,20.45
2022-09-14T03:35:19.850Z,25.95
2022-09-14T03:37:24.958Z,15.55
2022-09-14T03:39:30.129Z,17.60
2022-09-14T03:41:35.021Z,17.23
2022-09-14T03:43:40.177Z,16.38
2022-09-14T03:45:45.280Z,14.15
2022-09-14T03:47:50.833Z,16.38
2022-09-14T03:49:56.189Z,15.45
2022-09-14T03:52:04.065Z,21.13
2022-09-14T03:54:09.617Z,14.73
2022-09-14T03:56:18.222Z,18.38
2022-09-14T03:58:23.213Z,14.30
2022-09-14T04:00:28.913Z,18.27
2022-09-14T04:02:34.206Z,16.83
2022-09-14T04:04:39.135Z,23.83
2022-09-14T04:06:44.439Z,21.17
2022-09-14T04:08:52.704Z,22.33
2022-09-14T04:10:57.640Z,25.42
2022-09-14T04:13:04.302Z,25.38
2022-09-14T04:15:11.382Z,21.83
2022-09-14T04:17:17.276Z,16.85
2022-09-14T04:19:22.481Z,18.63
2022-09-14T04:21:29.212Z,18.10
2022-09-14T04:23:46.258Z,22.92
2022-09-14T04:26:04.054Z,21.00
2022-09-14T04:28:20.294Z,27.27
2022-09-14T04:30:26.381Z,35.47
2022-09-14T04:32:34.425Z,29.10
2022-09-14T04:34:39.818Z,37.03
2022-09-14T04:36:44.868Z,55.30
2022-09-14T04:38:50.371Z,37.92
2022-09-14T04:40:55.335Z,32.08
2022-09-14T04:43:03.288Z,26.00
2022-09-14T04:45:10.002Z,26.27
2022-09-14T04:47:15.104Z,31.83
2022-09-14T04:49:21.621Z,30.25
2022-09-14T04:51:28.810Z,45.58
2022-09-14T04:53:36.164Z,53.35
2022-09-14T04:55:41.219Z,60.47
2022-09-14T04:57:47.046Z,52.08
2022-09-14T04:59:54.628Z,31.92
2022-09-14T05:01:59.608Z,44.67
2022-09-14T05:04:05.635Z,44.05
2022-09-14T05:06:14.201Z,36.58
2022-09-14T05:08:20.085Z,47.95
2022-09-14T05:10:25.202Z,34.10
2022-09-14T05:12:30.594Z,42.95
2022-09-14T05:14:35.566Z,41.10
2022-09-14T05:16:45.027Z,39.53
2022-09-14T05:18:50.815Z,53.53
2022-09-14T05:20:55.746Z,27.88
2022-09-14T05:23:01.002Z,56.92
2022-09-14T05:25:06.416Z,32.33
2022-09-14T05:27:11.519Z,59.38
2022-09-14T05:29:20.861Z,42.28
2022-09-14T05:31:28.104Z,19.80
2022-09-14T05:33:40.266Z,40.92
2022-09-14T05:35:46.105Z,20.40
2022-09-14T05:37:51.042Z,24.98
2022-09-14T05:39:57.098Z,19.67
2022-09-14T05:42:02.449Z,18.25
2022-09-14T05:44:08.432Z,30.77
2022-09-14T05:46:15.633Z,17.67
2022-09-14T05:48:21.834Z,19.15
2022-09-14T05:50:29.281Z,18.25
2022-09-14T05:52:34.188Z,31.85
2022-09-14T05:54:39.756Z,16.13
2022-09-14T05:56:45.217Z,36.45
2022-09-14T05:58:51.060Z,18.42
2022-09-14T06:00:56.503Z,22.77
2022-09-14T06:03:01.477Z,22.35
2022-09-14T06:05:07.816Z,16.55
2022-09-14T06:07:18.811Z,16.23
2022-09-14T06:09:24.374Z,15.48
2022-09-14T06:11:33.449Z,21.38
2022-09-14T06:13:39.874Z,13.07
2022-09-14T06:15:44.900Z,14.25
2022-09-14T06:17:49.796Z,12.07
2022-09-14T06:19:54.682Z,15.75
2022-09-14T06:22:00.358Z,14.27
2022-09-14T06:24:08.353Z,16.23
2022-09-14T06:26:14.068Z,19.02
2022-09-14T06:28:19.292Z,27.48
2022-09-14T06:30:24.790Z,12.63
2022-09-14T06:32:32.882Z,11.93
2022-09-14T06:34:37.783Z,14.23
2022-09-14T06:36:43.377Z,13.85
2022-09-14T06:38:51.247Z,21.50
2022-09-14T06:41:00.435Z,12.05
2022-09-14T06:43:05.904Z,17.63
2022-09-14T06:45:29.651Z,13.00
2022-09-14T06:47:40.800Z,19.35
2022-09-14T06:49:54.593Z,26.92
2022-09-14T06:52:13.424Z,22.92
2022-09-14T06:54:32.436Z,12.02
2022-09-14T06:59:17.068Z,10.98
2022-09-14T07:01:33.127Z,14.82
2022-09-14T07:03:50.801Z,11.07
2022-09-14T07:06:18.014Z,9.85
2022-09-14T07:08:30.221Z,10.05
2022-09-14T07:10:46.025Z,8.82
2022-09-14T07:12:58.698Z,13.40
2022-09-14T07:15:26.121Z,9.65
2022-09-14T07:17:36.884Z,8.30
2022-09-14T07:19:43.781Z,13.30
2022-09-14T07:21:57.372Z,8.77
2022-09-14T07:24:27.348Z,11.18
2022-09-14T07:26:43.637Z,18.60
2022-09-14T07:28:59.082Z,10.07
2022-09-14T07:31:21.366Z,8.45
2022-09-14T07:33:29.832Z,14.55
2022-09-14T07:35:36.624Z,9.48
2022-09-14T07:37:42.007Z,11.27
2022-09-14T07:39:47.876Z,7.75
2022-09-14T07:41:55.163Z,13.38
2022-09-14T07:44:07.068Z,16.90
2022-09-14T07:46:14.738Z,9.52
2022-09-14T07:48:23.801Z,11.73
2022-09-14T07:50:29.371Z,10.50
2022-09-14T07:52:38.580Z,7.15
2022-09-14T07:54:43.892Z,14.52
2022-09-14T07:56:50.967Z,13.65
2022-09-14T07:59:11.847Z,10.10
2022-09-14T08:01:25.981Z,6.22
2022-09-14T08:03:33.153Z,12.93
2022-09-14T08:05:38.766Z,8.20
2022-09-14T08:07:43.744Z,7.72
2022-09-14T08:09:49.416Z,9.93
2022-09-14T08:11:58.160Z,6.75
2022-09-14T08:14:05.408Z,6.72
2022-09-14T08:16:11.360Z,10.35
2022-09-14T08:18:19.880Z,6.20
2022-09-14T08:20:25.513Z,5.07
2022-09-14T08:22:36.235Z,8.18
2022-09-14T08:24:42.540Z,7.68
2022-09-14T08:26:47.883Z,9.48
2022-09-14T08:28:57.175Z,5.80
2022-09-14T08:31:07.568Z,6.78
2022-09-14T08:33:12.728Z,7.93
2022-09-14T08:35:40.829Z,6.40
2022-09-14T08:37:48.597Z,8.68
2022-09-14T08:39:54.513Z,6.80
2022-09-14T08:42:20.743Z,7.07
2022-09-14T08:44:33.162Z,5.18
2022-09-14T08:46:44.977Z,5.90
2022-09-14T08:48:53.349Z,5.30
2022-09-14T08:51:02.325Z,5.78
2022-09-14T08:53:13.854Z,4.75
2022-09-14T08:55:34.537Z,8.65
2022-09-14T08:57:46.624Z,4.65
2022-09-14T09:00:02.273Z,4.93
2022-09-14T09:02:36.919Z,4.45
2022-09-14T09:04:54.605Z,3.90
2022-09-14T09:07:13.339Z,10.05
2022-09-14T09:09:28.213Z,3.40
2022-09-14T09:11:44.826Z,3.67
2022-09-14T09:13:54.262Z,5.05
2022-09-14T09:16:04.653Z,3.40
2022-09-14T09:18:15.365Z,2.95
2022-09-14T09:20:26.308Z,4.45
2022-09-14T09:22:42.833Z,3.75
2022-09-14T09:24:55.337Z,4.50
2022-09-14T09:27:00.629Z,2.72
2022-09-14T09:29:12.304Z,4.60
2022-09-14T09:31:47.472Z,4.43
2022-09-14T09:34:15.546Z,4.28
2022-09-14T09:36:29.374Z,4.25
2022-09-14T09:38:43.094Z,4.88
2022-09-14T09:40:55.476Z,5.30
2022-09-14T09:43:24.234Z,2.95
2022-09-14T09:46:02.315Z,3.97
2022-09-14T09:48:19.592Z,4.28
2022-09-14T09:50:30.570Z,3.20
2022-09-14T09:52:44.959Z,3.25
2022-09-14T09:55:00.929Z,3.38
2022-09-14T09:57:28.593Z,2.58
2022-09-14T09:59:49.513Z,4.63
2022-09-14T10:02:01.284Z,4.75
2022-09-14T10:04:31.146Z,3.40
2022-09-14T10:06:51.998Z,2.88
2022-09-14T10:09:00.358Z,4.25
2022-09-14T10:11:10.594Z,3.50
2022-09-14T10:13:38.354Z,3.88
2022-09-14T10:15:51.792Z,2.17
2022-09-14T10:18:11.560Z,3.58
2022-09-14T10:20:30.133Z,1.50
2022-09-14T10:22:51.750Z,1.75
2022-09-14T10:25:02.850Z,3.13
2022-09-14T10:27:39.929Z,2.17
2022-09-14T10:29:48.390Z,1.55
2022-09-14T10:32:07.954Z,2.88
2022-09-14T10:34:25.866Z,2.08
2022-09-14T10:36:44.719Z,3.20
2022-09-14T10:38:58.686Z,1.10
2022-09-14T10:41:26.800Z,1.75
2022-09-14T10:43:58.088Z,3.17
2022-09-14T10:46:18.741Z,1.42
2022-09-14T10:48:47.280Z,1.90
2022-09-14T10:51:20.725Z,1.38
2022-09-14T10:54:01.598Z,6.90
2022-09-14T10:56:16.019Z,1.48
2022-09-14T10:58:43.217Z,1.77
2022-09-14T11:01:11.595Z,2.17
2022-09-14T11:03:46.173Z,2.20
2022-09-14T11:06:06.638Z,6.85
2022-09-14T11:08:25.572Z,1.83
2022-09-14T11:10:48.360Z,2.67
2022-09-14T11:13:38.295Z,3.63
2022-09-14T11:15:59.444Z,2.67
2022-09-14T11:18:39.172Z,5.68
2022-09-14T11:21:04.072Z,3.38
2022-09-14T11:23:32.303Z,3.83
2022-09-14T11:25:50.631Z,2.85
2022-09-14T11:28:07.593Z,2.63
2022-09-14T11:30:22.289Z,2.42
2022-09-14T11:32:42.376Z,2.15
2022-09-14T11:35:01.257Z,2.30
2022-09-14T11:37:16.556Z,3.55
2022-09-14T11:39:31.541Z,2.88
2022-09-14T11:41:45.598Z,3.38
2022-09-14T11:43:57.559Z,5.13
2022-09-14T11:46:14.469Z,4.07
2022-09-14T11:48:48.995Z,3.08
2022-09-14T11:51:05.211Z,4.10
2022-09-14T11:53:15.914Z,3.42
2022-09-14T11:55:22.490Z,3.22
2022-09-14T11:57:36.681Z,3.85
2022-09-14T12:00:00.168Z,4.28
2022-09-14T12:02:55.568Z,2.85
2022-09-14T12:05:37.116Z,3.28
2022-09-14T12:08:06.238Z,3.30
2022-09-14T12:10:22.195Z,3.42
2022-09-14T12:12:41.508Z,3.50
2022-09-14T12:14:48.125Z,4.82
2022-09-14T12:17:38.805Z,4.20
2022-09-14T12:19:46.622Z,4.75
2022-09-14T12:21:55.053Z,5.72
2022-09-14T12:24:00.936Z,6.38
2022-09-14T12:26:32.349Z,6.57
2022-09-14T12:28:50.624Z,5.05
2022-09-14T12:31:16.468Z,5.63
2022-09-14T12:34:06.474Z,5.38
2022-09-14T12:36:13.545Z,8.43
2022-09-14T12:39:10.147Z,6.60
2022-09-14T12:42:08.658Z,7.45
2022-09-14T12:44:38.938Z,6.53
2022-09-14T12:46:44.070Z,6.85
2022-09-14T12:49:03.218Z,7.68
2022-09-14T12:51:08.861Z,10.15
2022-09-14T12:53:31.253Z,8.98
2022-09-14T12:56:04.512Z,9.80
2022-09-14T12:58:23.822Z,10.45
2022-09-14T13:00:31.666Z,11.50
2022-09-14T13:03:17.526Z,12.30
2022-09-14T13:07:36.122Z,12.15
2022-09-14T13:09:48.901Z,12.23
2022-09-14T13:12:01.442Z,14.50
2022-09-14T13:14:07.101Z,14.05
2022-09-14T13:16:21.567Z,14.40
2022-09-14T13:18:38.153Z,14.82
2022-09-14T13:20:43.692Z,14.23
2022-09-14T13:22:48.616Z,15.60
2022-09-14T13:24:56.319Z,14.00
2022-09-14T13:27:07.263Z,13.48
2022-09-14T13:29:12.671Z,14.77
2022-09-14T13:31:24.046Z,14.98
2022-09-14T13:33:31.301Z,14.50
2022-09-14T13:35:41.819Z,16.02
2022-09-14T13:37:48.482Z,14.85
2022-09-14T13:39:57.303Z,15.90
2022-09-14T13:42:06.653Z,15.38
2022-09-14T13:44:13.547Z,14.15
2022-09-14T13:46:20.556Z,14.25
2022-09-14T13:48:26.170Z,13.82
2022-09-14T13:50:31.619Z,15.70
2022-09-14T13:55:21.981Z,14.05
2022-09-14T13:57:29.849Z,16.23
2022-09-14T13:59:35.491Z,15.45
2022-09-14T14:01:44.224Z,12.38
2022-09-14T14:03:52.659Z,14.55
2022-09-14T14:05:58.661Z,14.35
2022-09-14T14:08:05.859Z,15.10
2022-09-14T14:10:31.670Z,18.58
2022-09-14T14:12:40.846Z,19.13
2022-09-14T14:14:45.775Z,16.58
2022-09-14T14:17:25.890Z,14.70
2022-09-14T14:19:33.636Z,14.63
2022-09-14T14:21:38.557Z,14.15
2022-09-14T14:24:02.780Z,14.18
2022-09-14T14:26:12.826Z,14.32
2022-09-14T14:28:25.902Z,14.38
2022-09-14T14:30:31.987Z,16.33
2022-09-14T14:32:37.356Z,14.13
2022-09-14T14:34:42.835Z,14.60
2022-09-14T14:36:50.348Z,14.10
2022-09-14T14:38:56.356Z,14.95
2022-09-14T14:41:01.816Z,14.52
2022-09-14T14:43:08.346Z,15.15
2022-09-14T14:45:22.041Z,17.27
2022-09-14T14:47:27.606Z,15.40
2022-09-14T14:49:32.464Z,15.23
2022-09-14T14:51:38.052Z,17.17
2022-09-14T14:53:43.687Z,15.43
2022-09-14T14:55:48.775Z,23.73
2022-09-14T14:57:54.450Z,18.90
2022-09-14T15:00:00.152Z,19.20
2022-09-14T15:02:08.126Z,20.95
2022-09-14T15:04:12.989Z,21.73
2022-09-14T15:06:23.840Z,20.38
2022-09-14T15:08:28.764Z,20.35
2022-09-14T15:10:34.053Z,19.90
2022-09-14T15:12:39.724Z,17.65
2022-09-14T15:14:44.660Z,21.17
2022-09-14T15:16:50.414Z,18.70
2022-09-14T15:18:59.070Z,20.35
2022-09-14T15:21:04.217Z,19.95
2022-09-14T15:23:10.014Z,22.92
2022-09-14T15:25:17.541Z,20.98
2022-09-14T15:27:22.442Z,26.45
2022-09-14T15:29:27.578Z,27.17
2022-09-14T15:31:33.315Z,28.00
2022-09-14T15:33:38.612Z,25.23
2022-09-14T15:35:46.446Z,27.25
2022-09-14T15:37:51.342Z,22.85
2022-09-14T15:39:56.605Z,27.27
2022-09-14T15:42:01.883Z,21.77
2022-09-14T15:44:07.397Z,20.92
2022-09-14T15:46:13.284Z,20.10
2022-09-14T15:48:20.453Z,21.15
2022-09-14T15:50:25.602Z,19.85
2022-09-14T15:52:33.567Z,26.00
2022-09-14T15:54:40.828Z,19.65
2022-09-14T15:56:47.389Z,22.20
2022-09-14T15:58:52.671Z,22.05
2022-09-14T16:00:57.649Z,24.95
2022-09-14T16:03:03.796Z,24.05
2022-09-14T16:05:10.508Z,19.50
2022-09-14T16:07:15.487Z,19.75
2022-09-14T16:09:23.219Z,31.42
2022-09-14T16:11:28.102Z,26.38
2022-09-14T16:13:33.525Z,23.33
2022-09-14T16:15:39.139Z,34.15
2022-09-14T16:17:44.876Z,22.30
2022-09-14T16:19:51.638Z,26.83
2022-09-14T16:21:59.499Z,19.13
2022-09-14T16:24:08.375Z,19.90
2022-09-14T16:26:18.735Z,30.05
2022-09-14T16:28:24.601Z,18.05
2022-09-14T16:30:29.464Z,26.92
2022-09-14T16:32:35.120Z,31.77
2022-09-14T16:34:40.504Z,18.73
2022-09-14T16:36:46.486Z,27.05
2022-09-14T16:38:51.755Z,20.23
2022-09-14T16:41:03.683Z,17.63
2022-09-14T16:43:11.248Z,17.25
2022-09-14T16:47:21.440Z,17.15
2022-09-14T16:49:28.104Z,17.85
2022-09-14T16:51:35.037Z,19.95
2022-09-14T16:53:44.264Z,24.13
2022-09-14T16:55:49.146Z,20.20
2022-09-14T16:57:54.545Z,28.65
2022-09-14T17:00:03.575Z,26.40
2022-09-14T17:02:08.808Z,14.75
2022-09-14T17:04:16.713Z,14.27
2022-09-14T17:06:28.605Z,15.73
2022-09-14T17:08:34.184Z,17.20
2022-09-14T17:10:39.216Z,16.17
2022-09-14T17:12:44.443Z,26.00
2022-09-14T17:14:49.818Z,18.98
2022-09-14T17:16:57.493Z,19.52
2022-09-14T17:19:05.577Z,14.90
2022-09-14T17:21:13.822Z,13.63
2022-09-14T17:23:19.746Z,23.67
2022-09-14T17:25:24.927Z,28.25
2022-09-14T17:27:30.095Z,15.27
2022-09-14T17:29:38.719Z,12.63
2022-09-14T17:31:46.624Z,15.52
2022-09-14T17:33:57.220Z,13.32
2022-09-14T17:36:02.766Z,16.67
2022-09-14T17:38:08.100Z,14.50
2022-09-14T17:40:13.947Z,15.90
2022-09-14T17:42:19.285Z,18.30
2022-09-14T17:44:26.234Z,12.63
2022-09-14T17:46:31.633Z,23.25
2022-09-14T17:48:40.249Z,13.57
2022-09-14T17:50:48.359Z,14.18
2022-09-14T17:52:53.558Z,13.25
2022-09-14T17:54:58.463Z,10.30
2022-09-14T17:57:03.428Z,12.80
2022-09-14T17:59:11.036Z,12.35
2022-09-14T18:01:19.850Z,14.27
2022-09-14T18:03:25.074Z,12.90
2022-09-14T18:05:30.414Z,16.45
2022-09-14T18:07:38.409Z,19.67
2022-09-14T18:09:43.484Z,19.58
2022-09-14T18:11:50.098Z,20.67
2022-09-14T18:13:56.080Z,16.90
2022-09-14T18:16:01.218Z,9.75
2022-09-14T18:18:06.344Z,14.40
2022-09-14T18:20:14.856Z,7.90
2022-09-14T18:22:19.887Z,8.30
2022-09-14T18:24:27.867Z,13.77
2022-09-14T18:26:32.765Z,11.35
2022-09-14T18:28:39.215Z,13.43
2022-09-14T18:30:44.340Z,6.38
2022-09-14T18:32:49.217Z,13.00
2022-09-14T18:34:54.258Z,4.80
2022-09-14T18:36:59.167Z,31.55
2022-09-14T18:39:04.507Z,8.32
2022-09-14T18:41:14.724Z,11.02
2022-09-14T18:43:19.871Z,9.40
2022-09-14T18:45:24.790Z,5.90
2022-09-14T18:47:29.748Z,11.32
2022-09-14T18:49:34.892Z,5.95
2022-09-14T18:51:39.851Z,42.50
2022-09-14T18:53:45.403Z,6.45
2022-09-14T18:55:50.293Z,6.78
2022-09-14T18:57:57.937Z,8.65
2022-09-14T19:02:07.856Z,3.15
2022-09-14T19:04:15.879Z,7.57
2022-09-14T19:06:22.002Z,5.10
2022-09-14T19:08:27.038Z,11.15
2022-09-14T19:10:32.417Z,9.15
2022-09-14T19:12:38.030Z,9.45
2022-09-14T19:14:45.525Z,5.38
2022-09-14T19:16:50.565Z,5.95
2022-09-14T19:18:55.579Z,4.43
2022-09-14T19:21:06.987Z,3.90
2022-09-14T19:23:12.556Z,4.78
2022-09-14T19:25:17.848Z,3.08
2022-09-14T19:27:23.184Z,19.15
2022-09-14T19:29:28.800Z,7.95
2022-09-14T19:31:36.996Z,2.20
2022-09-14T19:33:45.550Z,3.08
2022-09-14T19:35:50.726Z,6.03
2022-09-14T19:37:55.784Z,2.85
2022-09-14T19:40:01.209Z,2.72
2022-09-14T19:42:06.700Z,2.60
2022-09-14T19:44:13.342Z,4.97
2022-09-14T19:46:23.513Z,6.00
2022-09-14T19:48:31.125Z,2.70
2022-09-14T19:50:36.044Z,4.88
2022-09-14T19:52:41.045Z,3.45
2022-09-14T19:54:46.086Z,2.55
2022-09-14T19:56:51.227Z,2.88
2022-09-14T19:58:58.984Z,2.35
2022-09-14T20:01:04.012Z,3.20
2022-09-14T20:03:08.992Z,4.97
2022-09-14T20:05:16.967Z,4.28
2022-09-14T20:07:22.212Z,3.05
2022-09-14T20:09:27.975Z,4.60
2022-09-14T20:11:35.987Z,3.35
2022-09-14T20:13:41.784Z,2.25
2022-09-14T20:15:46.876Z,2.40
2022-09-14T20:17:55.899Z,2.47
2022-09-14T20:20:00.787Z,3.25
2022-09-14T20:22:09.635Z,3.35
2022-09-14T20:24:20.673Z,2.47
2022-09-14T20:26:28.485Z,2.80
2022-09-14T20:28:34.213Z,2.28
2022-09-14T20:30:39.681Z,3.00
2022-09-14T20:32:44.625Z,3.80
2022-09-14T20:34:49.944Z,11.55
2022-09-14T20:36:56.888Z,6.43
2022-09-14T20:39:04.411Z,10.82
2022-09-14T20:41:11.414Z,5.13
2022-09-14T20:43:16.393Z,5.45
2022-09-14T20:45:21.317Z,4.75
2022-09-14T20:47:27.038Z,7.35
2022-09-14T20:49:32.340Z,5.78
2022-09-14T20:51:38.431Z,13.60
2022-09-14T20:53:45.572Z,4.72
2022-09-14T20:55:53.309Z,4.90
2022-09-14T20:57:58.384Z,7.28
2022-09-14T21:00:03.711Z,6.18
2022-09-14T21:02:09.070Z,17.75
2022-09-14T21:04:17.165Z,8.50
2022-09-14T21:06:24.501Z,30.20
2022-09-14T21:08:29.907Z,7.65
2022-09-14T21:10:41.560Z,2.65
2022-09-14T21:12:49.790Z,2.25
2022-09-14T21:16:59.864Z,0.50
2022-09-14T21:19:09.310Z,1.08
2022-09-14T21:21:16.132Z,0.88
2022-09-14T21:23:21.476Z,0.90
2022-09-14T21:25:26.412Z,0.93
2022-09-14T21:27:31.890Z,1.98
2022-09-14T21:29:39.419Z,1.73
2022-09-14T21:31:44.934Z,2.72
2022-09-14T21:33:52.598Z,2.17
2022-09-14T21:38:03.614Z,1.50
2022-09-14T21:40:11.057Z,1.63
2022-09-14T21:42:15.967Z,1.58
2022-09-14T21:44:20.925Z,2.38
2022-09-14T21:46:29.294Z,1.65
2022-09-14T21:48:41.994Z,2.35
2022-09-14T21:50:47.593Z,3.47
2022-09-14T21:52:52.934Z,2.13
2022-09-14T21:55:05.181Z,4.30
2022-09-14T21:57:10.077Z,3.80
2022-09-14T21:59:19.510Z,2.42
2022-09-14T22:01:25.373Z,2.92
2022-09-14T22:03:33.290Z,1.48
2022-09-14T22:05:38.710Z,3.75
2022-09-14T22:07:44.374Z,2.95
2022-09-14T22:09:49.277Z,4.25
2022-09-14T22:11:55.300Z,2.92
2022-09-14T22:14:02.783Z,5.75
2022-09-14T22:16:12.464Z,5.30
2022-09-14T22:18:18.108Z,5.50
2022-09-14T22:20:26.017Z,6.35
2022-09-14T22:22:31.278Z,3.60
2022-09-14T22:24:42.565Z,8.38
2022-09-14T22:26:50.344Z,9.30
2022-09-14T22:28:56.814Z,3.85
2022-09-14T22:31:01.812Z,3.72
2022-09-14T22:33:06.776Z,6.97
2022-09-14T22:35:13.086Z,6.18
2022-09-14T22:37:20.743Z,5.18
2022-09-14T22:39:26.043Z,6.25
2022-09-14T22:41:31.807Z,8.10
2022-09-14T22:43:38.145Z,7.10
2022-09-14T22:45:43.109Z,9.07
2022-09-14T22:47:49.439Z,4.40
2022-09-14T22:49:56.109Z,8.55
2022-09-14T22:52:01.009Z,12.52
2022-09-14T22:54:09.998Z,9.68
2022-09-14T22:56:19.733Z,14.70
2022-09-14T22:58:27.748Z,5.00
2022-09-14T23:00:33.261Z,8.57
2022-09-14T23:02:38.476Z,7.25
2022-09-14T23:04:43.423Z,3.65
2022-09-14T23:06:51.001Z,7.18
2022-09-14T23:08:53.409Z,3.45
2022-09-14T23:11:06.444Z,4.80
2022-09-14T23:13:11.651Z,3.70
2022-09-14T23:15:16.903Z,4.07
2022-09-14T23:17:23.387Z,7.35
2022-09-14T23:19:28.879Z,3.25
2022-09-14T23:21:35.102Z,4.55
2022-09-14T23:23:41.026Z,3.95
2022-09-14T23:25:46.026Z,4.07
2022-09-14T23:27:53.561Z,3.53
2022-09-14T23:29:59.228Z,3.13
2022-09-14T23:32:04.597Z,3.53
2022-09-14T23:34:09.583Z,6.95
2022-09-14T23:36:14.868Z,8.13
2022-09-14T23:38:20.170Z,10.50
2022-09-14T23:40:25.909Z,6.78
2022-09-14T23:42:30.950Z,7.70
2022-09-14T23:44:39.405Z,7.10
2022-09-14T23:46:45.238Z,7.15
2022-09-14T23:48:50.425Z,6.45
2022-09-14T23:51:02.264Z,3.92
2022-09-14T23:53:08.381Z,3.53
2022-09-14T23:55:13.577Z,8.95
2022-09-14T23:57:18.631Z,7.43
2022-09-14T23:59:23.573Z,5.63
